Sandy Hook, Connecticut
Current Conditions -  °F | °C
As of 8:45 AM on Friday 24 Oct 2014 (Local Time) from KOXC Reporting Station
Drizzle Drizzle  
Wind Chill:   Ceiling: 800
Heat Index:   Visibility: 2mi
Dew Point:   Wind: 5mph
Humidity: 81%   Direction: 330°NNW
Pressure: 29.78"   Gusts: NA
Location:  41.42°N, 73.28°W
Report Text: KOXC 241245Z 33004KT 2SM DZ BR OVC008 08/05 A2978
Loading
Personal Weather Stations






























Interactive Weather Map
Tropical Storm Tracking
New forecast layout! Learn more

10-Day Weather Forecast

Advertisements
Track Severe Weather on mobile